createdAt,value
2022-08-11T13:02:47.792Z,31.88
2022-08-11T13:03:52.302Z,32.02
2022-08-11T13:04:48.972Z,32.11
2022-08-11T13:05:49.453Z,32.15
2022-08-11T13:06:48.766Z,32.21
2022-08-11T13:07:50.666Z,32.27
2022-08-11T13:08:48.943Z,32.18
2022-08-11T13:09:48.801Z,32.17
2022-08-11T13:10:48.742Z,32.18
2022-08-11T13:11:56.247Z,32.03
2022-08-11T13:12:48.942Z,31.98
2022-08-11T13:13:55.084Z,31.96
2022-08-11T13:14:48.773Z,31.85
2022-08-11T13:15:49.019Z,31.84
2022-08-11T13:16:48.631Z,31.80
2022-08-11T13:17:48.761Z,31.79
2022-08-11T13:18:48.740Z,31.79
2022-08-11T13:19:49.858Z,31.76
2022-08-11T13:20:48.919Z,31.72
2022-08-11T13:21:48.727Z,31.61
2022-08-11T13:22:48.749Z,31.62
2022-08-11T13:23:59.617Z,31.53
2022-08-11T13:24:49.007Z,31.42
2022-08-11T13:25:48.592Z,31.38
2022-08-11T13:26:50.313Z,31.33
2022-08-11T13:27:48.527Z,31.30
2022-08-11T13:28:48.655Z,31.26
2022-08-11T13:29:48.528Z,31.18
2022-08-11T13:30:48.513Z,31.21
2022-08-11T13:31:48.562Z,31.26
2022-08-11T13:32:48.434Z,31.31
2022-08-11T13:33:48.396Z,31.42
2022-08-11T13:34:48.563Z,31.49
2022-08-11T13:35:48.851Z,31.48
2022-08-11T13:36:48.756Z,31.49
2022-08-11T13:38:17.346Z,31.46
2022-08-11T13:38:50.164Z,31.50
2022-08-11T13:39:48.681Z,31.65
2022-08-11T13:40:55.581Z,31.80
2022-08-11T13:41:48.476Z,31.91
2022-08-11T13:42:48.381Z,32.05
2022-08-11T13:43:48.563Z,32.00
2022-08-11T13:44:48.390Z,31.91
2022-08-11T13:45:48.532Z,31.92
2022-08-11T13:46:48.384Z,31.91
2022-08-11T13:47:48.282Z,31.95
2022-08-11T13:48:48.316Z,31.96
2022-08-11T13:49:48.597Z,31.98
2022-08-11T13:50:48.218Z,32.00
2022-08-11T13:51:48.146Z,31.98
2022-08-11T13:52:52.685Z,31.92
2022-08-11T13:53:48.246Z,31.88
2022-08-11T13:54:48.160Z,31.87
2022-08-11T13:55:51.714Z,31.80
2022-08-11T13:56:48.114Z,31.84
2022-08-11T13:58:08.080Z,31.70
2022-08-11T13:58:53.829Z,31.61
2022-08-11T13:59:52.859Z,31.61
2022-08-11T14:00:52.643Z,31.68
2022-08-11T14:02:19.183Z,31.70
2022-08-11T14:02:49.233Z,31.75
2022-08-11T14:04:31.416Z,31.80
2022-08-11T14:04:48.555Z,31.80
2022-08-11T14:05:48.473Z,31.58
2022-08-11T14:06:48.055Z,31.53
2022-08-11T14:07:48.099Z,31.55
2022-08-11T14:08:48.022Z,31.57
2022-08-11T14:09:48.265Z,31.50
2022-08-11T14:10:48.016Z,31.55
2022-08-11T14:12:21.816Z,31.57
2022-08-11T14:12:47.963Z,31.65
2022-08-11T14:13:48.491Z,31.73
2022-08-11T14:14:48.191Z,31.68
2022-08-11T14:15:48.133Z,31.73
2022-08-11T14:16:47.817Z,31.77
2022-08-11T14:17:49.286Z,31.80
2022-08-11T14:18:47.957Z,31.84
2022-08-11T14:19:47.882Z,31.80
2022-08-11T14:20:48.005Z,31.87
2022-08-11T14:21:47.890Z,31.93
2022-08-11T14:22:48.935Z,31.99
2022-08-11T14:23:48.713Z,32.07
2022-08-11T14:24:48.402Z,32.15
2022-08-11T14:26:00.841Z,32.24
2022-08-11T14:26:47.736Z,32.32
2022-08-11T14:28:33.533Z,32.36
2022-08-11T14:28:48.224Z,32.40
2022-08-11T14:29:49.097Z,32.39
2022-08-11T14:30:47.837Z,32.35
2022-08-11T14:31:48.175Z,32.32
2022-08-11T14:32:55.397Z,32.17
2022-08-11T14:34:00.973Z,32.05
2022-08-11T14:34:47.701Z,31.92
2022-08-11T14:35:48.892Z,31.96
2022-08-11T14:36:47.585Z,31.98
2022-08-11T14:37:48.125Z,31.95
2022-08-11T14:38:48.000Z,32.00
2022-08-11T14:39:47.913Z,32.00
2022-08-11T14:40:48.364Z,31.92
2022-08-11T14:42:11.754Z,31.91
2022-08-11T14:42:47.472Z,31.85
2022-08-11T14:44:10.366Z,31.82
2022-08-11T14:44:47.454Z,31.82
2022-08-11T14:45:58.183Z,31.75
2022-08-11T14:46:49.523Z,31.73
2022-08-11T14:47:50.457Z,31.76
2022-08-11T14:48:47.567Z,31.77
2022-08-11T14:50:10.339Z,31.85
2022-08-11T14:50:47.429Z,31.93
2022-08-11T14:51:47.895Z,32.00
2022-08-11T14:52:47.542Z,32.06
2022-08-11T14:53:58.369Z,32.15
2022-08-11T14:54:47.488Z,32.13
2022-08-11T14:55:48.112Z,32.11
2022-08-11T14:56:47.384Z,32.13
2022-08-11T14:58:04.899Z,32.10
2022-08-11T14:58:47.289Z,32.06
2022-08-11T14:59:47.286Z,31.99
2022-08-11T15:00:47.404Z,31.93
2022-08-11T15:01:47.260Z,31.93
2022-08-11T15:02:47.237Z,31.87
2022-08-11T15:04:34.248Z,31.80
2022-08-11T15:04:47.224Z,31.76
2022-08-11T15:05:56.717Z,31.79
2022-08-11T15:06:47.215Z,31.80
2022-08-11T15:07:47.139Z,31.82
2022-08-11T15:08:47.466Z,31.85
2022-08-11T15:10:11.779Z,31.87
2022-08-11T15:10:47.152Z,31.91
2022-08-11T15:11:47.224Z,31.92
2022-08-11T15:12:47.080Z,31.98
2022-08-11T15:13:47.075Z,32.03
2022-08-11T15:14:47.064Z,31.93
2022-08-11T15:15:47.063Z,31.85
2022-08-11T15:16:47.041Z,31.85
2022-08-11T15:17:47.119Z,31.87
2022-08-11T15:18:47.020Z,31.82
2022-08-11T15:19:46.996Z,31.79
2022-08-11T15:20:46.979Z,31.84
2022-08-11T15:21:46.984Z,31.85
2022-08-11T15:22:47.003Z,31.95
2022-08-11T15:23:46.938Z,32.00
2022-08-11T15:24:46.916Z,32.03
2022-08-11T15:25:46.904Z,32.00
2022-08-11T15:26:46.915Z,31.98
2022-08-11T15:27:46.922Z,31.99
2022-08-11T15:28:46.869Z,31.99
2022-08-11T15:29:46.921Z,32.02
2022-08-11T15:30:46.846Z,32.05
2022-08-11T15:31:49.287Z,32.11
2022-08-11T15:32:46.863Z,32.17
2022-08-11T15:33:46.790Z,32.17
2022-08-11T15:34:46.781Z,32.18
2022-08-11T15:35:46.760Z,32.11
2022-08-11T15:36:46.760Z,32.07
2022-08-11T15:37:46.751Z,31.98
2022-08-11T15:38:46.754Z,31.99
2022-08-11T15:39:46.771Z,31.85
2022-08-11T15:40:46.731Z,31.84
2022-08-11T15:41:54.669Z,31.79
2022-08-11T15:42:46.689Z,31.82
2022-08-11T15:43:46.674Z,31.88
2022-08-11T15:45:02.207Z,31.84
2022-08-11T15:45:46.730Z,31.80
2022-08-11T15:46:46.701Z,31.68
2022-08-11T15:47:46.648Z,31.67
2022-08-11T15:48:46.639Z,31.67
2022-08-11T15:50:11.958Z,31.65
2022-08-11T15:50:46.602Z,31.61
2022-08-11T15:51:46.701Z,31.57
2022-08-11T15:52:46.556Z,31.55
2022-08-11T15:53:46.542Z,31.54
2022-08-11T15:54:46.534Z,31.53
2022-08-11T15:55:46.538Z,31.50
2022-08-11T15:56:46.554Z,31.50
2022-08-11T15:57:46.549Z,31.54
2022-08-11T15:58:46.473Z,31.58
2022-08-11T15:59:46.501Z,31.65
2022-08-11T16:00:46.545Z,31.65
2022-08-11T16:01:46.571Z,31.68
2022-08-11T16:02:46.417Z,31.72
2022-08-11T16:04:06.067Z,31.77
2022-08-11T16:04:46.394Z,31.77
2022-08-11T16:05:53.223Z,31.82
2022-08-11T16:06:49.342Z,31.79
2022-08-11T16:07:46.391Z,31.76
2022-08-11T16:08:46.370Z,31.68
2022-08-11T16:09:47.508Z,31.72
2022-08-11T16:10:46.311Z,31.60
2022-08-11T16:11:46.384Z,31.57
2022-08-11T16:12:46.364Z,31.57
2022-08-11T16:13:46.321Z,31.58
2022-08-11T16:14:46.782Z,31.62
2022-08-11T16:15:46.306Z,31.67
2022-08-11T16:16:46.327Z,31.68
2022-08-11T16:17:46.361Z,31.70
2022-08-11T16:18:46.286Z,31.73
2022-08-11T16:19:46.388Z,31.65
2022-08-11T16:20:46.179Z,31.62
2022-08-11T16:21:46.237Z,31.60
2022-08-11T16:22:57.190Z,31.54
2022-08-11T16:23:46.190Z,31.53
2022-08-11T16:27:03.404Z,31.53
2022-08-11T16:27:14.569Z,31.53
2022-08-11T16:27:23.873Z,31.46
2022-08-11T16:28:19.488Z,31.46
2022-08-11T16:29:19.919Z,31.48
2022-08-11T16:30:19.628Z,31.48
2022-08-11T16:31:19.540Z,31.50
2022-08-11T16:32:19.690Z,31.53
2022-08-11T16:33:49.783Z,31.55
2022-08-11T16:34:23.399Z,31.61
2022-08-11T16:35:19.411Z,31.65
2022-08-11T16:36:19.438Z,31.65
2022-08-11T16:37:19.369Z,31.67
2022-08-11T16:38:19.424Z,31.68
2022-08-11T16:39:19.486Z,31.62
2022-08-11T16:40:19.349Z,31.60
2022-08-11T16:41:19.335Z,31.55
2022-08-11T16:43:05.265Z,31.54
2022-08-11T16:43:19.576Z,31.46
2022-08-11T16:44:19.310Z,31.48
2022-08-11T16:45:19.263Z,31.50
2022-08-11T16:46:19.348Z,31.53
2022-08-11T16:48:01.956Z,31.54
2022-08-11T16:48:38.814Z,31.46
2022-08-11T16:49:19.287Z,31.39
2022-08-11T16:50:19.198Z,31.36
2022-08-11T16:51:19.186Z,31.28
2022-08-11T16:52:19.179Z,31.30
2022-08-11T16:53:19.200Z,31.30
2022-08-11T16:54:19.222Z,31.28
2022-08-11T16:55:51.438Z,31.26
2022-08-11T16:56:19.130Z,31.26
2022-08-11T16:57:20.044Z,31.26
2022-08-11T16:58:19.194Z,31.18
2022-08-11T16:59:19.133Z,31.12
2022-08-11T17:00:19.079Z,31.15
2022-08-11T17:01:19.157Z,31.12
2022-08-11T17:02:19.082Z,31.09
2022-08-11T17:03:19.039Z,31.02
2022-08-11T17:04:19.065Z,30.99
2022-08-11T17:05:19.037Z,30.91
2022-08-11T17:06:19.035Z,30.91
2022-08-11T17:07:23.810Z,30.87
2022-08-11T17:08:19.003Z,30.87
2022-08-11T17:09:19.025Z,30.89
2022-08-11T17:10:31.339Z,30.89
2022-08-11T17:11:19.001Z,30.87
2022-08-11T17:12:18.925Z,30.89
2022-08-11T17:13:18.967Z,30.89
2022-08-11T17:14:18.886Z,30.91
2022-08-11T17:15:18.947Z,30.89
2022-08-11T17:16:19.007Z,30.89
2022-08-11T17:17:18.880Z,30.87
2022-08-11T17:18:18.868Z,30.83
2022-08-11T17:19:18.854Z,30.78
2022-08-11T17:20:45.663Z,30.75
2022-08-11T17:21:18.872Z,30.72
2022-08-11T17:22:18.830Z,30.68
2022-08-11T17:23:18.783Z,30.64
2022-08-11T17:24:18.817Z,30.68
2022-08-11T17:25:18.774Z,30.65
2022-08-11T17:26:18.737Z,30.68
2022-08-11T17:27:18.732Z,30.68
2022-08-11T17:28:18.744Z,30.67
2022-08-11T17:29:18.686Z,30.71
2022-08-11T17:30:18.738Z,30.69
2022-08-11T17:31:22.789Z,30.69
2022-08-11T17:32:18.688Z,30.67
2022-08-11T17:33:18.724Z,30.64
2022-08-11T17:34:18.762Z,30.62
2022-08-11T17:35:18.624Z,30.62
2022-08-11T17:36:18.613Z,30.61
2022-08-11T17:37:18.599Z,30.57
2022-08-11T17:38:18.587Z,30.49
2022-08-11T17:39:18.710Z,30.52
2022-08-11T17:40:18.565Z,30.50
2022-08-11T17:41:23.227Z,30.46
2022-08-11T17:42:18.549Z,30.40
2022-08-11T17:43:18.517Z,30.40
2022-08-11T17:44:18.505Z,30.40
2022-08-11T17:45:18.486Z,30.34
2022-08-11T17:46:18.490Z,30.30
2022-08-11T17:47:18.460Z,30.23
2022-08-11T17:48:18.442Z,30.21
2022-08-11T17:49:18.445Z,30.18
2022-08-11T17:50:18.655Z,30.16
2022-08-11T17:51:18.533Z,30.14
2022-08-11T17:52:18.483Z,30.11
2022-08-11T17:53:18.554Z,30.05
2022-08-11T17:54:24.798Z,30.05
2022-08-11T17:55:18.368Z,30.03
2022-08-11T17:56:18.334Z,30.02
2022-08-11T17:57:20.131Z,30.00
2022-08-11T17:58:18.363Z,29.96
2022-08-11T17:59:18.377Z,29.94
2022-08-11T18:00:18.620Z,29.94
2022-08-11T18:01:18.318Z,29.93
2022-08-11T18:02:18.309Z,29.94
2022-08-11T18:03:18.254Z,29.90
2022-08-11T18:04:18.384Z,29.86
2022-08-11T18:05:18.292Z,29.84
2022-08-11T18:06:18.465Z,29.82
2022-08-11T18:07:18.296Z,29.79
2022-08-11T18:08:18.175Z,29.77
2022-08-11T18:09:18.202Z,29.74
2022-08-11T18:10:18.199Z,29.72
2022-08-11T18:12:06.767Z,29.72
2022-08-11T18:12:18.173Z,29.70
2022-08-11T18:13:18.120Z,29.62
2022-08-11T18:14:18.247Z,29.57
2022-08-11T18:15:18.160Z,29.55
2022-08-11T18:16:18.140Z,29.52
2022-08-11T18:17:18.160Z,29.47
2022-08-11T18:18:18.145Z,29.41
2022-08-11T18:19:18.118Z,29.38
2022-08-11T18:20:18.084Z,29.33
2022-08-11T18:21:18.060Z,29.29
2022-08-11T18:22:18.023Z,29.25
2022-08-11T18:23:18.027Z,29.22
2022-08-11T18:24:18.041Z,29.18
2022-08-11T18:25:17.991Z,29.11
2022-08-11T18:26:17.999Z,29.04
2022-08-11T18:27:17.982Z,29.01
2022-08-11T18:28:18.840Z,28.93
2022-08-11T18:29:17.944Z,28.90
2022-08-11T18:30:17.932Z,28.88
2022-08-11T18:31:17.922Z,28.85
2022-08-11T18:32:21.884Z,28.85
2022-08-11T18:33:44.677Z,28.80
2022-08-11T18:34:17.907Z,28.75
2022-08-11T18:35:17.852Z,28.70
2022-08-11T18:36:17.796Z,28.68
2022-08-11T18:37:20.102Z,28.66
2022-08-11T18:38:17.803Z,28.63
2022-08-11T18:39:17.898Z,28.59
2022-08-11T18:40:17.763Z,28.51
2022-08-11T18:41:17.757Z,28.47
2022-08-11T18:42:28.743Z,28.43
2022-08-11T18:43:17.766Z,28.38
2022-08-11T18:44:17.717Z,28.38
2022-08-11T18:45:17.718Z,28.33
2022-08-11T18:46:17.911Z,28.31
2022-08-11T18:47:17.724Z,28.26
2022-08-11T18:52:14.891Z,27.99
2022-08-11T18:53:13.556Z,27.91
2022-08-11T18:54:13.549Z,27.91
2022-08-11T18:55:34.524Z,27.85
2022-08-11T18:56:36.653Z,27.82
2022-08-11T19:20:17.763Z,26.73
2022-08-11T19:21:18.694Z,26.67
2022-08-11T19:22:18.758Z,26.59
2022-08-11T19:23:18.684Z,26.59
2022-08-11T19:24:18.718Z,26.59
2022-08-11T19:25:22.128Z,26.61
2022-08-11T19:26:18.777Z,26.62
2022-08-11T19:27:18.873Z,26.61
2022-08-11T19:28:18.608Z,26.59
2022-08-11T19:30:06.935Z,26.58
2022-08-11T19:30:18.668Z,26.54
2022-08-11T19:31:18.569Z,26.46
2022-08-11T19:32:18.538Z,26.43
2022-08-11T19:34:00.446Z,26.42
2022-08-11T19:34:18.554Z,26.36
2022-08-11T19:35:18.758Z,26.35
2022-08-11T19:36:18.488Z,26.29
2022-08-11T19:37:24.108Z,26.25
2022-08-11T19:38:18.515Z,26.20
2022-08-11T19:39:18.503Z,26.17
2022-08-11T19:40:18.459Z,26.11
2022-08-11T19:41:52.178Z,26.06
2022-08-11T19:42:18.408Z,26.05
2022-08-11T19:43:23.843Z,25.97
2022-08-11T19:44:18.390Z,25.93
2022-08-11T19:45:18.913Z,25.87
2022-08-11T19:46:18.414Z,25.84
2022-08-11T19:47:18.455Z,25.82
2022-08-11T19:48:31.798Z,25.82
2022-08-11T19:49:18.333Z,25.79
2022-08-11T19:50:24.307Z,25.74
2022-08-11T19:51:18.320Z,25.71
2022-08-11T19:52:18.300Z,25.67
2022-08-11T19:53:18.290Z,25.64
2022-08-11T19:54:18.269Z,25.59
2022-08-11T19:55:18.464Z,25.56
2022-08-11T19:56:18.243Z,25.53
2022-08-11T19:57:18.263Z,25.49
2022-08-11T19:58:18.239Z,25.44
2022-08-11T19:59:18.190Z,25.42
2022-08-11T20:00:18.220Z,25.39
2022-08-11T20:01:18.260Z,25.37
2022-08-11T20:02:18.192Z,25.30
2022-08-11T20:03:18.152Z,25.28
2022-08-11T20:04:18.153Z,25.24
2022-08-11T20:05:18.107Z,25.22
2022-08-11T20:06:18.130Z,25.17
2022-08-11T20:07:18.123Z,25.12
2022-08-11T20:08:18.610Z,25.06
2022-08-11T20:09:18.085Z,25.02
2022-08-11T20:10:18.036Z,25.01
2022-08-11T20:11:18.237Z,24.98
2022-08-11T20:12:18.012Z,24.95
2022-08-11T20:13:21.329Z,24.90
2022-08-11T20:14:17.998Z,24.85
2022-08-11T20:15:17.990Z,24.83
2022-08-11T20:16:17.981Z,24.77
2022-08-11T20:17:17.970Z,24.73
2022-08-11T20:18:17.943Z,24.69
2022-08-11T20:19:18.014Z,24.68
2022-08-11T20:20:17.976Z,24.63
2022-08-11T20:21:25.359Z,24.60
2022-08-11T20:22:17.922Z,24.54
2022-08-11T20:23:17.871Z,24.53
2022-08-11T20:24:17.869Z,24.50
2022-08-11T20:25:17.911Z,24.49
2022-08-11T20:26:30.894Z,24.49
2022-08-11T20:27:18.793Z,24.44
2022-08-11T20:28:17.903Z,24.39
2022-08-11T20:29:17.826Z,24.37
2022-08-11T20:30:17.776Z,24.35
2022-08-11T20:31:17.790Z,24.32
2022-08-11T20:32:17.769Z,24.29
2022-08-11T20:33:17.780Z,24.31
2022-08-11T20:34:17.715Z,24.24
2022-08-11T20:35:17.718Z,24.22
2022-08-11T20:36:17.719Z,24.19
2022-08-11T20:37:17.685Z,24.17
2022-08-11T20:38:17.670Z,24.17
2022-08-11T20:39:17.730Z,24.14
2022-08-11T20:40:17.683Z,24.14
2022-08-11T20:41:17.667Z,24.12
2022-08-11T20:42:17.665Z,24.10
2022-08-11T20:44:06.147Z,24.02
2022-08-11T20:44:17.645Z,24.04
2022-08-11T20:45:17.584Z,24.01
2022-08-11T20:46:17.594Z,24.00
2022-08-11T20:47:17.595Z,23.95
2022-08-11T20:48:17.543Z,23.95
2022-08-11T20:49:16.568Z,23.92
2022-08-11T20:50:19.447Z,23.89
2022-08-11T20:51:17.560Z,23.86
2022-08-11T20:52:17.559Z,23.87
2022-08-11T20:53:17.518Z,23.86
2022-08-11T20:54:17.462Z,23.83
2022-08-11T20:55:26.122Z,23.79
2022-08-11T20:56:17.477Z,23.76
2022-08-11T20:57:17.471Z,23.72
2022-08-11T20:58:18.361Z,23.71
2022-08-11T20:59:18.929Z,23.67
2022-08-11T21:00:17.417Z,23.61
2022-08-11T21:01:24.193Z,23.62
2022-08-11T21:02:17.439Z,23.58
2022-08-11T21:03:35.430Z,23.55
2022-08-11T21:04:17.333Z,23.55
2022-08-11T21:05:19.748Z,23.53
2022-08-11T21:06:31.407Z,23.53
2022-08-11T21:07:39.348Z,23.52
2022-08-11T21:08:17.277Z,23.53
2022-08-11T21:09:19.863Z,23.52
2022-08-11T21:10:23.753Z,23.53
2022-08-11T21:11:27.880Z,23.47
2022-08-11T21:12:17.296Z,23.50
2022-08-11T21:13:17.218Z,23.49
2022-08-11T21:55:14.997Z,22.52
2022-08-11T21:56:16.008Z,22.47
2022-08-11T21:57:16.041Z,22.47
2022-08-11T21:58:15.962Z,22.39
2022-08-11T21:59:15.910Z,22.39
2022-08-11T22:00:16.628Z,22.35
2022-08-11T22:01:16.012Z,22.34
2022-08-11T22:02:15.923Z,22.32
2022-08-11T22:03:15.938Z,22.29
2022-08-11T22:04:15.925Z,22.27
2022-08-11T22:05:15.923Z,22.23
2022-08-11T22:06:15.927Z,22.20
2022-08-11T22:07:15.861Z,22.16
2022-08-11T22:08:15.822Z,22.13
2022-08-11T22:09:15.815Z,22.10
2022-08-11T22:10:40.341Z,22.04
2022-08-11T22:11:15.841Z,22.02
2022-08-11T22:12:33.545Z,21.99
2022-08-11T22:13:15.767Z,21.99
2022-08-11T22:14:15.830Z,21.97
2022-08-11T22:15:15.745Z,21.95
2022-08-11T22:16:15.731Z,21.91
2022-08-11T22:17:15.680Z,21.92
2022-08-11T22:18:15.672Z,21.88
2022-08-11T22:19:15.695Z,21.88
2022-08-11T22:20:15.680Z,21.82
2022-08-11T22:21:59.569Z,21.79
2022-08-11T22:22:15.630Z,21.75
2022-08-11T22:23:15.667Z,21.75
2022-08-11T22:24:18.291Z,21.75
2022-08-11T22:25:16.460Z,21.71
2022-08-11T22:26:15.697Z,21.69
2022-08-11T22:27:15.567Z,21.72
2022-08-11T22:28:15.577Z,21.71
2022-08-11T22:29:15.589Z,21.69
2022-08-11T22:30:15.532Z,21.66
2022-08-11T22:31:15.515Z,21.67
2022-08-11T22:32:14.510Z,21.67
2022-08-11T22:33:15.523Z,21.66
2022-08-11T22:34:15.508Z,21.61
2022-08-11T22:35:15.479Z,21.61
2022-08-11T22:36:15.445Z,21.64
2022-08-11T22:37:27.137Z,21.60
2022-08-11T22:38:15.427Z,21.64
2022-08-11T22:39:15.468Z,21.60
2022-08-11T22:40:15.492Z,21.59
2022-08-11T22:41:15.471Z,21.57
2022-08-11T22:42:15.391Z,21.56
2022-08-11T22:43:15.409Z,21.51
2022-08-11T22:44:15.416Z,21.51
2022-08-11T22:45:15.397Z,21.48
2022-08-11T22:46:15.363Z,21.48
2022-08-11T22:47:15.373Z,21.45
2022-08-11T22:48:15.298Z,21.46
2022-08-11T22:49:15.314Z,21.46
2022-08-11T22:50:15.329Z,21.44
2022-08-11T22:51:15.262Z,21.44
2022-08-11T22:52:15.265Z,21.41
2022-08-11T22:53:15.249Z,21.45
2022-08-11T22:54:15.238Z,21.42
2022-08-11T22:55:15.218Z,21.39
2022-08-11T22:56:15.222Z,21.38
2022-08-11T22:57:15.203Z,21.38
2022-08-11T22:58:15.190Z,21.35
2022-08-11T22:59:15.154Z,21.32
2022-08-11T23:00:15.163Z,21.32
2022-08-11T23:01:15.224Z,21.30
2022-08-11T23:02:15.107Z,21.27
2022-08-11T23:03:36.992Z,21.29
2022-08-11T23:04:15.338Z,21.26
2022-08-11T23:05:15.157Z,21.29
2022-08-11T23:06:15.079Z,21.29
2022-08-11T23:07:15.040Z,21.26
2022-08-11T23:08:15.057Z,21.26
2022-08-11T23:09:15.134Z,21.24
2022-08-11T23:10:15.010Z,21.27
2022-08-11T23:11:15.010Z,21.29
2022-08-11T23:12:14.978Z,21.26
2022-08-11T23:13:14.992Z,21.23
2022-08-11T23:14:14.955Z,21.26
2022-08-11T23:15:14.998Z,21.23
2022-08-11T23:16:14.920Z,21.24
2022-08-11T23:17:14.914Z,21.23
2022-08-11T23:18:14.910Z,21.19
2022-08-11T23:19:14.897Z,21.20
2022-08-11T23:20:25.153Z,21.17
2022-08-11T23:21:14.923Z,21.16
2022-08-11T23:22:15.021Z,21.16
2022-08-11T23:23:14.836Z,21.13
2022-08-11T23:24:14.907Z,21.14
2022-08-11T23:25:17.744Z,21.13
2022-08-11T23:26:14.880Z,21.13
2022-08-11T23:27:14.818Z,21.11
2022-08-11T23:28:14.835Z,21.11
2022-08-11T23:29:14.781Z,21.06
2022-08-11T23:30:14.758Z,21.05
2022-08-11T23:31:14.769Z,21.02
2022-08-11T23:32:14.765Z,21.01
2022-08-11T23:33:14.755Z,20.95
2022-08-11T23:34:39.407Z,20.95
2022-08-11T23:35:38.939Z,20.95
2022-08-11T23:36:36.063Z,20.95
2022-08-11T23:37:14.754Z,20.91
2022-08-11T23:38:14.652Z,20.91
2022-08-11T23:39:14.733Z,20.89
2022-08-11T23:40:14.610Z,20.89
2022-08-11T23:41:14.646Z,20.90
2022-08-11T23:42:14.624Z,20.87
2022-08-11T23:43:14.586Z,20.84
2022-08-11T23:44:14.579Z,20.84
2022-08-11T23:45:15.005Z,20.81
2022-08-11T23:46:14.551Z,20.80
2022-08-11T23:47:14.538Z,20.79
2022-08-11T23:48:14.562Z,20.83
2022-08-11T23:49:14.527Z,20.83
2022-08-11T23:50:16.246Z,20.84
2022-08-11T23:51:14.488Z,20.79
2022-08-11T23:52:14.537Z,20.80
2022-08-11T23:53:14.454Z,20.79
2022-08-11T23:54:14.499Z,20.77
2022-08-11T23:55:14.421Z,20.76
2022-08-11T23:56:14.433Z,20.72
2022-08-11T23:57:14.406Z,20.71
2022-08-11T23:58:14.375Z,20.68
2022-08-11T23:59:14.417Z,20.66
